Thunder radar more information blitzortung!


Radar de pluja more information rain snow radar


Visita la nostra xarxa de llocs de meteo:

Template documentation
and downloads

And another site



No particular awareness of the weather is required.    There are no Weather-warnings

Pagina Historial Weather Underground text

Diari Resum February 25, 2016 Unitats:  Mètric    Imperial   Tant
« Previous Dia
SegĂźent Dia »
Diari Setmana Mensual Anual Personalitzada
  Maxima: Minima: Media:
Temperatura: 18.8 °C 7.1 °C 15 °C
Punt de rosada: 6.4 °C 0.1 °C 3.7 °C
Humitat: 61 % 38 % 47 %
Wind Speed: 11.1 km/h 0.0 km/h 5.2 km/h
RĂ fegues de vent: 11.3 km/h - -
Vent:- - WSW
Pression baro: 1014.8 hPa 1010.7 hPa -
Precipitacions: 0.0 mm    
Historical Graphs
 
 
Dades de taula per February 25, 2016
Temps Temperatura Punt de rosada Pression baro Vent Wind Speed RĂ fegues de vent Humitat Rainfall Rate (Hourly)
09:45 18.3 °C 4.8 °C 1011.7 hPa West 4.8 km/h 11.3 km/h 41 % 0.0 mm
09:55 18.7 °C 4.8 °C 1011.7 hPa West 3.2 km/h 9.7 km/h 40 % 0.0 mm
10:05 18.7 °C 4.8 °C 1011.7 hPa West 4.8 km/h 9.7 km/h 40 % 0.0 mm
10:15 18.7 °C 4.8 °C 1011.7 hPa WSW 1.6 km/h 9.7 km/h 40 % 0.0 mm
10:25 18.3 °C 4.4 °C 1011.7 hPa WSW 4.8 km/h 6.4 km/h 40 % 0.0 mm
10:35 18.5 °C 4.6 °C 1011.7 hPa West 4.8 km/h 11.3 km/h 40 % 0.0 mm
10:45 18.8 °C 4.9 °C 1011.7 hPa WSW 3.2 km/h 9.7 km/h 40 % 0.0 mm
10:55 18.8 °C 4.6 °C 1010.7 hPa WSW 8.0 km/h 9.7 km/h 39 % 0.0 mm
11:05 18.3 °C 4.1 °C 1011.7 hPa WSW 4.8 km/h 6.4 km/h 39 % 0.0 mm
11:15 18.3 °C 4.1 °C 1011.7 hPa WSW 3.2 km/h 8.0 km/h 39 % 0.0 mm
11:25 18.5 °C 4.3 °C 1011.7 hPa West 8.0 km/h 9.7 km/h 39 % 0.0 mm
11:35 18.0 °C 3.4 °C 1011.7 hPa WSW 4.8 km/h 9.7 km/h 38 % 0.0 mm
11:45 17.8 °C 4.0 °C 1011.7 hPa WSW 3.2 km/h 8.0 km/h 40 % 0.0 mm
11:55 17.6 °C 3.8 °C 1012.8 hPa WSW 4.8 km/h 4.8 km/h 40 % 0.0 mm
12:05 17.2 °C 3.4 °C 1012.8 hPa WSW 4.8 km/h 6.4 km/h 40 % 0.0 mm
12:15 16.7 °C 3.0 °C 1012.8 hPa WSW 8.0 km/h 8.0 km/h 40 % 0.0 mm
12:25 16.1 °C 2.5 °C 1012.8 hPa WSW 4.8 km/h 8.0 km/h 40 % 0.0 mm
12:35 15.5 °C 2.3 °C 1012.8 hPa WSW 4.8 km/h 9.7 km/h 41 % 0.0 mm
12:43 16.5 °C 6.1 °C 1013.8 hPa WSW 7.9 km/h 7.9 km/h 50 % 0.0 mm
12:45 15.2 °C 2.0 °C 1012.8 hPa WSW 8.0 km/h 11.3 km/h 41 % 0.0 mm
12:48 16.5 °C 6.1 °C 1013.8 hPa NNE 3.7 km/h 3.7 km/h 50 % 0.0 mm
12:55 15.0 °C 1.8 °C 1013.8 hPa WSW 4.8 km/h 9.7 km/h 41 % 0.0 mm
12:58 16.5 °C 6.1 °C 1013.8 hPa NE 5.6 km/h 5.6 km/h 50 % 0.0 mm
13:03 16.4 °C 5.9 °C 1013.8 hPa WSW 7.9 km/h 7.9 km/h 50 % 0.0 mm
13:08 16.6 °C 6.1 °C 1013.8 hPa ESE 5.6 km/h 5.6 km/h 50 % 0.0 mm
13:13 17.2 °C 6.4 °C 1013.8 hPa ENE 5.6 km/h 5.6 km/h 49 % 0.0 mm
13:15 14.5 °C 1.7 °C 1013.8 hPa WSW 4.8 km/h 6.4 km/h 42 % 0.0 mm
13:18 17.3 °C 6.2 °C 1012.8 hPa SSW 9.0 km/h 9.0 km/h 48 % 0.0 mm
13:23 17.4 °C 5.9 °C 1012.8 hPa SSW 9.3 km/h 9.3 km/h 47 % 0.0 mm
13:25 14.1 °C 1.4 °C 1013.8 hPa WSW 3.2 km/h 6.4 km/h 42 % 0.0 mm
13:28 17.7 °C 6.2 °C 1012.8 hPa SW 4.2 km/h 4.2 km/h 47 % 0.0 mm
13:33 18.1 °C 6.3 °C 1012.8 hPa NE 5.6 km/h 5.6 km/h 46 % 0.0 mm
13:35 14.0 °C 1.6 °C 1012.8 hPa WSW 4.8 km/h 4.8 km/h 43 % 0.0 mm
13:38 18.2 °C 6.4 °C 1012.8 hPa WNW 6.4 km/h 6.9 km/h 46 % 0.0 mm
13:43 17.9 °C 6.1 °C 1012.8 hPa WSW 9.3 km/h 9.3 km/h 46 % 0.0 mm
13:48 17.4 °C 5.7 °C 1012.8 hPa WNW 5.6 km/h 5.6 km/h 46 % 0.0 mm
13:53 17.2 °C 5.4 °C 1012.8 hPa SW 4.2 km/h 4.2 km/h 46 % 0.0 mm
13:55 13.7 °C 1.7 °C 1013.8 hPa WSW 8.0 km/h 8.0 km/h 44 % 0.0 mm
13:58 17.1 °C 5.4 °C 1012.8 hPa WSW 9.3 km/h 9.3 km/h 46 % 0.0 mm
14:03 16.7 °C 5.3 °C 1012.8 hPa SW 4.2 km/h 4.2 km/h 47 % 0.0 mm
14:05 13.7 °C 1.7 °C 1013.8 hPa WSW 4.8 km/h 8.0 km/h 44 % 0.0 mm
14:13 16.8 °C 5.4 °C 1012.8 hPa WSW 9.5 km/h 9.5 km/h 47 % 0.0 mm
14:15 13.5 °C 1.8 °C 1013.8 hPa WSW 3.2 km/h 6.4 km/h 45 % 0.0 mm
14:18 17.0 °C 4.9 °C 1012.8 hPa SSW 7.4 km/h 7.4 km/h 45 % 0.0 mm
14:23 16.8 °C 5.1 °C 1012.8 hPa WNW 9.3 km/h 9.3 km/h 46 % 0.0 mm
14:25 13.4 °C 1.7 °C 1013.8 hPa WSW 8.0 km/h 8.0 km/h 45 % 0.0 mm
14:28 17.2 °C 5.2 °C 1012.8 hPa SSW 9.3 km/h 9.3 km/h 45 % 0.0 mm
14:33 17.8 °C 5.7 °C 1011.7 hPa SSW 11.1 km/h 11.1 km/h 45 % 0.0 mm
14:35 13.4 °C 1.7 °C 1013.8 hPa SW 4.8 km/h 8.0 km/h 45 % 0.0 mm
14:43 17.4 °C 5.0 °C 1011.7 hPa WSW 9.3 km/h 9.3 km/h 44 % 0.0 mm
14:45 13.2 °C 1.8 °C 1013.8 hPa SW 8.0 km/h 8.0 km/h 46 % 0.0 mm
14:48 17.7 °C 5.6 °C 1011.7 hPa SW 3.7 km/h 3.7 km/h 45 % 0.0 mm
14:53 18.3 °C 5.8 °C 1011.7 hPa North 9.5 km/h 9.5 km/h 44 % 0.0 mm
14:55 13.2 °C 1.8 °C 1013.8 hPa SW 3.2 km/h 9.7 km/h 46 % 0.0 mm
14:58 17.9 °C 5.4 °C 1011.7 hPa West 9.3 km/h 9.3 km/h 44 % 0.0 mm
15:03 17.7 °C 5.3 °C 1011.7 hPa WSW 5.8 km/h 5.8 km/h 44 % 0.0 mm
15:05 13.0 °C 1.6 °C 1013.8 hPa SW 4.8 km/h 6.4 km/h 46 % 0.0 mm
15:08 17.7 °C 5.3 °C 1011.7 hPa WSW 5.8 km/h 5.8 km/h 44 % 0.0 mm
15:13 17.7 °C 5.3 °C 1011.7 hPa WSW 5.8 km/h 5.8 km/h 44 % 0.0 mm
15:15 13.0 °C 1.9 °C 1013.8 hPa SW 8.0 km/h 9.7 km/h 47 % 0.0 mm
15:18 17.7 °C 5.3 °C 1011.7 hPa WSW 5.8 km/h 5.8 km/h 44 % 0.0 mm
15:23 17.7 °C 5.3 °C 1011.7 hPa WSW 5.8 km/h 5.8 km/h 44 % 0.0 mm
15:25 12.9 °C 1.8 °C 1013.8 hPa SW 9.7 km/h 9.7 km/h 47 % 0.0 mm
15:33 17.7 °C 5.3 °C 1011.7 hPa WSW 5.8 km/h 5.8 km/h 44 % 0.0 mm
15:38 17.7 °C 5.3 °C 1011.7 hPa WSW 5.8 km/h 5.8 km/h 44 % 0.0 mm
15:40 12.8 °C 2.1 °C 1013.8 hPa SW 8.0 km/h 9.7 km/h 48 % 0.0 mm
15:43 17.7 °C 5.3 °C 1011.7 hPa WSW 5.8 km/h 5.8 km/h 44 % 0.0 mm
15:48 17.7 °C 5.3 °C 1011.7 hPa WSW 5.8 km/h 5.8 km/h 44 % 0.0 mm
15:53 17.7 °C 5.3 °C 1011.7 hPa WSW 5.8 km/h 5.8 km/h 44 % 0.0 mm
15:58 17.7 °C 5.3 °C 1011.7 hPa WSW 5.8 km/h 5.8 km/h 44 % 0.0 mm
16:03 17.7 °C 5.3 °C 1011.7 hPa WSW 5.8 km/h 5.8 km/h 44 % 0.0 mm
16:08 17.7 °C 5.3 °C 1011.7 hPa WSW 5.8 km/h 5.8 km/h 44 % 0.0 mm
16:13 17.7 °C 5.3 °C 1011.7 hPa WSW 5.8 km/h 5.8 km/h 44 % 0.0 mm
16:18 17.7 °C 5.3 °C 1011.7 hPa WSW 5.8 km/h 5.8 km/h 44 % 0.0 mm
16:23 17.7 °C 5.3 °C 1011.7 hPa WSW 5.8 km/h 5.8 km/h 44 % 0.0 mm
16:28 17.7 °C 5.3 °C 1011.7 hPa WSW 5.8 km/h 5.8 km/h 44 % 0.0 mm
16:38 17.7 °C 5.3 °C 1011.7 hPa WSW 5.8 km/h 5.8 km/h 44 % 0.0 mm
16:43 17.7 °C 5.3 °C 1011.7 hPa WSW 5.8 km/h 5.8 km/h 44 % 0.0 mm
16:48 17.7 °C 5.3 °C 1011.7 hPa WSW 5.8 km/h 5.8 km/h 44 % 0.0 mm
16:53 17.7 °C 5.3 °C 1011.7 hPa WSW 5.8 km/h 5.8 km/h 44 % 0.0 mm
16:58 17.7 °C 5.3 °C 1011.7 hPa WSW 5.8 km/h 5.8 km/h 44 % 0.0 mm
17:08 17.7 °C 5.3 °C 1011.7 hPa WSW 5.8 km/h 5.8 km/h 44 % 0.0 mm
17:13 17.7 °C 5.3 °C 1011.7 hPa WSW 5.8 km/h 5.8 km/h 44 % 0.0 mm
17:18 17.7 °C 5.3 °C 1011.7 hPa WSW 5.8 km/h 5.8 km/h 44 % 0.0 mm
17:28 17.7 °C 5.3 °C 1011.7 hPa WSW 5.8 km/h 5.8 km/h 44 % 0.0 mm
17:33 17.7 °C 5.3 °C 1011.7 hPa WSW 5.8 km/h 5.8 km/h 44 % 0.0 mm
17:38 17.7 °C 5.3 °C 1011.7 hPa WSW 5.8 km/h 5.8 km/h 44 % 0.0 mm
17:43 17.7 °C 5.3 °C 1011.7 hPa WSW 5.8 km/h 5.8 km/h 44 % 0.0 mm
17:48 17.7 °C 5.3 °C 1011.7 hPa WSW 5.8 km/h 5.8 km/h 44 % 0.0 mm
17:53 17.7 °C 5.3 °C 1011.7 hPa WSW 5.8 km/h 5.8 km/h 44 % 0.0 mm
17:58 17.7 °C 5.3 °C 1011.7 hPa WSW 5.8 km/h 5.8 km/h 44 % 0.0 mm
18:00 11.2 °C 1.7 °C 1013.8 hPa West 1.6 km/h 3.2 km/h 52 % 0.0 mm
18:08 17.7 °C 5.3 °C 1011.7 hPa WSW 5.8 km/h 5.8 km/h 44 % 0.0 mm
18:10 11.0 °C 1.5 °C 1013.8 hPa SW 3.2 km/h 3.2 km/h 52 % 0.0 mm
18:13 17.7 °C 5.3 °C 1011.7 hPa WSW 5.8 km/h 5.8 km/h 44 % 0.0 mm
18:20 10.9 °C 1.7 °C 1014.8 hPa Calm   4.8 km/h 53 % 0.0 mm
18:23 17.7 °C 5.3 °C 1011.7 hPa WSW 5.8 km/h 5.8 km/h 44 % 0.0 mm
18:28 17.7 °C 5.3 °C 1011.7 hPa WSW 5.8 km/h 5.8 km/h 44 % 0.0 mm
18:30 10.8 °C 1.6 °C 1014.8 hPa West 1.6 km/h 6.4 km/h 53 % 0.0 mm
18:33 17.7 °C 5.3 °C 1011.7 hPa WSW 5.8 km/h 5.8 km/h 44 % 0.0 mm
18:38 17.7 °C 5.3 °C 1011.7 hPa WSW 5.8 km/h 5.8 km/h 44 % 0.0 mm
18:40 10.5 °C 1.3 °C 1013.8 hPa NNW 1.6 km/h 4.8 km/h 53 % 0.0 mm
18:43 17.7 °C 5.3 °C 1011.7 hPa WSW 5.8 km/h 5.8 km/h 44 % 0.0 mm
18:48 17.7 °C 5.3 °C 1011.7 hPa WSW 5.8 km/h 5.8 km/h 44 % 0.0 mm
18:50 10.5 °C 1.6 °C 1014.8 hPa NNW 4.8 km/h 4.8 km/h 54 % 0.0 mm
18:53 17.7 °C 5.3 °C 1011.7 hPa WSW 5.8 km/h 5.8 km/h 44 % 0.0 mm
18:58 17.7 °C 5.3 °C 1011.7 hPa WSW 5.8 km/h 5.8 km/h 44 % 0.0 mm
19:00 10.5 °C 1.3 °C 1014.8 hPa NNW 3.2 km/h 4.8 km/h 53 % 0.0 mm
19:03 17.7 °C 5.3 °C 1011.7 hPa WSW 5.8 km/h 5.8 km/h 44 % 0.0 mm
19:08 17.7 °C 5.3 °C 1011.7 hPa WSW 5.8 km/h 5.8 km/h 44 % 0.0 mm
19:10 10.4 °C 1.2 °C 1013.8 hPa West 1.6 km/h 6.4 km/h 53 % 0.0 mm
19:13 17.7 °C 5.3 °C 1011.7 hPa WSW 5.8 km/h 5.8 km/h 44 % 0.0 mm
19:18 17.7 °C 5.3 °C 1011.7 hPa WSW 5.8 km/h 5.8 km/h 44 % 0.0 mm
19:20 10.4 °C 1.5 °C 1014.8 hPa Calm   3.2 km/h 54 % 0.0 mm
19:23 17.7 °C 5.3 °C 1011.7 hPa WSW 5.8 km/h 5.8 km/h 44 % 0.0 mm
19:28 17.7 °C 5.3 °C 1011.7 hPa WSW 5.8 km/h 5.8 km/h 44 % 0.0 mm
19:30 10.2 °C 1.3 °C 1014.8 hPa WNW 1.6 km/h 3.2 km/h 54 % 0.0 mm
19:33 17.7 °C 5.3 °C 1011.7 hPa WSW 5.8 km/h 5.8 km/h 44 % 0.0 mm
19:38 17.7 °C 5.3 °C 1011.7 hPa WSW 5.8 km/h 5.8 km/h 44 % 0.0 mm
19:40 10.2 °C 1.3 °C 1013.8 hPa North 4.8 km/h 4.8 km/h 54 % 0.0 mm
19:43 17.7 °C 5.3 °C 1011.7 hPa WSW 5.8 km/h 5.8 km/h 44 % 0.0 mm
19:48 17.7 °C 5.3 °C 1011.7 hPa WSW 5.8 km/h 5.8 km/h 44 % 0.0 mm
19:50 10.1 °C 1.2 °C 1014.8 hPa North 3.2 km/h 4.8 km/h 54 % 0.0 mm
19:53 17.7 °C 5.3 °C 1011.7 hPa WSW 5.8 km/h 5.8 km/h 44 % 0.0 mm
19:58 17.7 °C 5.3 °C 1011.7 hPa WSW 5.8 km/h 5.8 km/h 44 % 0.0 mm
20:00 9.9 °C 1.0 °C 1014.8 hPa West 1.6 km/h 1.6 km/h 54 % 0.0 mm
20:03 17.7 °C 5.3 °C 1011.7 hPa WSW 5.8 km/h 5.8 km/h 44 % 0.0 mm
20:08 17.7 °C 5.3 °C 1011.7 hPa WSW 5.8 km/h 5.8 km/h 44 % 0.0 mm
20:10 9.7 °C 0.8 °C 1014.8 hPa West 1.6 km/h 3.2 km/h 54 % 0.0 mm
20:13 17.7 °C 5.3 °C 1011.7 hPa WSW 5.8 km/h 5.8 km/h 44 % 0.0 mm
20:18 17.7 °C 5.3 °C 1011.7 hPa WSW 5.8 km/h 5.8 km/h 44 % 0.0 mm
20:20 9.6 °C 0.7 °C 1013.8 hPa NNW 1.6 km/h 4.8 km/h 54 % 0.0 mm
20:23 17.7 °C 5.3 °C 1011.7 hPa WSW 5.8 km/h 5.8 km/h 44 % 0.0 mm
20:30 9.4 °C 0.8 °C 1013.8 hPa Calm   4.8 km/h 55 % 0.0 mm
20:33 17.7 °C 5.3 °C 1011.7 hPa WSW 5.8 km/h 5.8 km/h 44 % 0.0 mm
20:38 17.7 °C 5.3 °C 1011.7 hPa WSW 5.8 km/h 5.8 km/h 44 % 0.0 mm
20:40 9.4 °C 0.8 °C 1013.8 hPa North 1.6 km/h 6.4 km/h 55 % 0.0 mm
20:43 17.7 °C 5.3 °C 1011.7 hPa WSW 5.8 km/h 5.8 km/h 44 % 0.0 mm
20:48 17.7 °C 5.3 °C 1011.7 hPa WSW 5.8 km/h 5.8 km/h 44 % 0.0 mm
20:50 9.2 °C 0.6 °C 1013.8 hPa North 3.2 km/h 6.4 km/h 55 % 0.0 mm
20:53 17.7 °C 5.3 °C 1011.7 hPa WSW 5.8 km/h 5.8 km/h 44 % 0.0 mm
20:58 17.7 °C 5.3 °C 1011.7 hPa WSW 5.8 km/h 5.8 km/h 44 % 0.0 mm
21:00 9.0 °C 0.7 °C 1013.8 hPa NW 1.6 km/h 4.8 km/h 56 % 0.0 mm
21:03 17.7 °C 5.3 °C 1011.7 hPa WSW 5.8 km/h 5.8 km/h 44 % 0.0 mm
21:08 17.7 °C 5.3 °C 1011.7 hPa WSW 5.8 km/h 5.8 km/h 44 % 0.0 mm
21:10 8.8 °C 0.7 °C 1013.8 hPa West 1.6 km/h 4.8 km/h 57 % 0.0 mm
21:13 17.7 °C 5.3 °C 1011.7 hPa WSW 5.8 km/h 5.8 km/h 44 % 0.0 mm
21:18 17.7 °C 5.3 °C 1011.7 hPa WSW 5.8 km/h 5.8 km/h 44 % 0.0 mm
21:20 8.6 °C 0.6 °C 1013.8 hPa West 1.6 km/h 4.8 km/h 57 % 0.0 mm
21:23 17.7 °C 5.3 °C 1011.7 hPa WSW 5.8 km/h 5.8 km/h 44 % 0.0 mm
21:28 17.7 °C 5.3 °C 1011.7 hPa WSW 5.8 km/h 5.8 km/h 44 % 0.0 mm
21:30 8.4 °C 0.4 °C 1013.8 hPa WSW 4.8 km/h 4.8 km/h 57 % 0.0 mm
21:33 17.7 °C 5.3 °C 1011.7 hPa WSW 5.8 km/h 5.8 km/h 44 % 0.0 mm
21:38 17.7 °C 5.3 °C 1011.7 hPa North 5.6 km/h   44 % 0.0 mm
21:40 8.0 °C 0.2 °C 1013.8 hPa Calm   3.2 km/h 58 % 0.0 mm
21:43 12.7 °C 2.2 °C 1013.8 hPa WSW 9.3 km/h 9.3 km/h 49 % 0.0 mm
21:48 12.6 °C 2.2 °C 1013.8 hPa SW 5.6 km/h 5.6 km/h 49 % 0.0 mm
21:50 7.8 °C 0.3 °C 1012.8 hPa Calm     59 % 0.0 mm
21:53 12.6 °C 2.2 °C 1013.8 hPa WSW 5.6 km/h 5.6 km/h 49 % 0.0 mm
21:58 12.5 °C 2.1 °C 1013.8 hPa WSW 5.6 km/h 5.6 km/h 49 % 0.0 mm
22:00 7.6 °C 0.1 °C 1012.8 hPa WSW 1.6 km/h 3.2 km/h 59 % 0.0 mm
22:03 12.4 °C 2.3 °C 1013.8 hPa West 7.4 km/h 7.4 km/h 50 % 0.0 mm
22:08 12.3 °C 2.2 °C 1013.8 hPa WSW 6.4 km/h 6.4 km/h 50 % 0.0 mm
22:10 7.6 °C 0.3 °C 1013.8 hPa Calm   1.6 km/h 60 % 0.0 mm
22:18 12.3 °C 2.2 °C 1014.8 hPa WSW 7.4 km/h 7.4 km/h 50 % 0.0 mm
22:20 7.5 °C 0.2 °C 1013.8 hPa Calm   1.6 km/h 60 % 0.0 mm
22:23 12.2 °C 2.1 °C 1014.8 hPa SSW 5.6 km/h 5.6 km/h 50 % 0.0 mm
22:28 12.1 °C 2.0 °C 1014.8 hPa WSW 3.7 km/h 3.9 km/h 50 % 0.0 mm
22:30 7.3 °C 0.1 °C 1013.8 hPa Calm   3.2 km/h 60 % 0.0 mm
22:33 12.1 °C 2.3 °C 1014.8 hPa WSW 9.0 km/h 9.0 km/h 51 % 0.0 mm
22:40 7.3 °C 0.1 °C 1013.8 hPa Calm   3.2 km/h 60 % 0.0 mm
22:43 12.1 °C 2.3 °C 1014.8 hPa SW 7.4 km/h 7.4 km/h 51 % 0.0 mm
22:48 12.1 °C 2.3 °C 1014.8 hPa WSW 7.9 km/h 7.9 km/h 51 % 0.0 mm
22:50 7.1 °C 0.1 °C 1013.8 hPa WSW 1.6 km/h 3.2 km/h 61 % 0.0 mm
22:53 12.1 °C 2.3 °C 1014.8 hPa WSW 9.3 km/h 9.3 km/h 51 % 0.0 mm
22:58 12.0 °C 2.2 °C 1014.8 hPa West 7.4 km/h 7.4 km/h 51 % 0.0 mm
23:00 7.1 °C 0.1 °C 1013.8 hPa Calm     61 % 0.0 mm
23:03 12.0 °C 2.2 °C 1014.8 hPa West 5.6 km/h 5.6 km/h 51 % 0.0 mm
23:08 12.0 °C 2.4 °C 1014.8 hPa SSW 7.4 km/h 7.4 km/h 52 % 0.0 mm
23:10 7.2 °C 0.2 °C 1013.8 hPa WSW 1.6 km/h 3.2 km/h 61 % 0.0 mm
23:13 11.9 °C 2.3 °C 1014.8 hPa West 7.4 km/h 7.4 km/h 52 % 0.0 mm
23:18 11.8 °C 2.3 °C 1014.8 hPa WNW 6.1 km/h 6.1 km/h 52 % 0.0 mm
23:20 7.2 °C 0.2 °C 1013.8 hPa Calm   1.6 km/h 61 % 0.0 mm
23:23 11.7 °C 2.2 °C 1014.8 hPa WSW 5.3 km/h 5.3 km/h 52 % 0.0 mm
23:30 7.3 °C 0.3 °C 1013.8 hPa Calm   3.2 km/h 61 % 0.0 mm
23:33 11.6 °C 2.1 °C 1013.8 hPa WSW 3.7 km/h 3.7 km/h 52 % 0.0 mm
23:38 11.5 °C 2.0 °C 1013.8 hPa NNW 5.6 km/h 5.6 km/h 52 % 0.0 mm
23:40 7.2 °C 0.2 °C 1013.8 hPa Calm   3.2 km/h 61 % 0.0 mm
23:43 11.5 °C 2.0 °C 1013.8 hPa West 4.7 km/h 4.7 km/h 52 % 0.0 mm
23:48 11.4 °C 1.9 °C 1013.8 hPa NNW 2.6 km/h   52 % 0.0 mm
23:50 7.4 °C 0.4 °C 1013.8 hPa East 3.2 km/h 3.2 km/h 61 % 0.0 mm
Meteo Sesrovires
Elogis d' Weather Underground - 3.5 mb

Guio original per  Jim McMurry - jmcmurry@mwt.net Adaptat per a la plantilla per  Wim van der Kuil - Leuven-Template.eu

Trobareu la nostra informacio del temps tambe a:

Weather Underground

AWEKAS